sensor_id;sensor_type;location;lat;lon;timestamp;temperature;humidity
16635;DHT22;8431;52.458;9.998;2022-10-22T00:02:20;12.00;99.90
16635;DHT22;8431;52.458;9.998;2022-10-22T00:04:48;11.90;99.90
16635;DHT22;8431;52.458;9.998;2022-10-22T00:07:16;11.90;99.90
16635;DHT22;8431;52.458;9.998;2022-10-22T00:09:45;11.90;99.90
16635;DHT22;8431;52.458;9.998;2022-10-22T00:12:13;11.80;99.90
16635;DHT22;8431;52.458;9.998;2022-10-22T00:14:41;11.80;99.90
16635;DHT22;8431;52.458;9.998;2022-10-22T00:17:08;11.80;99.90
16635;DHT22;8431;52.458;9.998;2022-10-22T00:19:36;11.80;99.90
16635;DHT22;8431;52.458;9.998;2022-10-22T00:22:03;11.70;99.90
16635;DHT22;8431;52.458;9.998;2022-10-22T00:24:30;11.70;99.90
16635;DHT22;8431;52.458;9.998;2022-10-22T00:26:59;11.80;99.90
16635;DHT22;8431;52.458;9.998;2022-10-22T00:29:26;11.80;99.90
16635;DHT22;8431;52.458;9.998;2022-10-22T00:31:53;11.80;99.90
16635;DHT22;8431;52.458;9.998;2022-10-22T00:34:21;11.80;99.90
16635;DHT22;8431;52.458;9.998;2022-10-22T00:36:49;11.80;99.90
16635;DHT22;8431;52.458;9.998;2022-10-22T00:39:18;11.80;99.90
16635;DHT22;8431;52.458;9.998;2022-10-22T00:41:46;11.80;99.90
16635;DHT22;8431;52.458;9.998;2022-10-22T00:47:19;11.80;99.90
16635;DHT22;8431;52.458;9.998;2022-10-22T00:49:49;11.80;99.90
16635;DHT22;8431;52.458;9.998;2022-10-22T00:52:16;11.90;99.90
16635;DHT22;8431;52.458;9.998;2022-10-22T00:54:43;11.90;99.90
16635;DHT22;8431;52.458;9.998;2022-10-22T00:57:10;11.90;99.90
16635;DHT22;8431;52.458;9.998;2022-10-22T00:59:38;11.90;99.90
16635;DHT22;8431;52.458;9.998;2022-10-22T01:02:05;11.90;99.90
16635;DHT22;8431;52.458;9.998;2022-10-22T01:04:33;11.90;99.90
16635;DHT22;8431;52.458;9.998;2022-10-22T01:07:00;11.90;99.90
16635;DHT22;8431;52.458;9.998;2022-10-22T01:09:32;11.90;99.90
16635;DHT22;8431;52.458;9.998;2022-10-22T01:12:03;11.90;99.90
16635;DHT22;8431;52.458;9.998;2022-10-22T01:14:41;11.90;99.90
16635;DHT22;8431;52.458;9.998;2022-10-22T01:17:16;11.90;99.90
16635;DHT22;8431;52.458;9.998;2022-10-22T01:19:58;11.90;99.90
16635;DHT22;8431;52.458;9.998;2022-10-22T01:22:30;11.80;99.90
16635;DHT22;8431;52.458;9.998;2022-10-22T01:25:04;11.80;99.90
16635;DHT22;8431;52.458;9.998;2022-10-22T01:27:55;11.80;99.90
16635;DHT22;8431;52.458;9.998;2022-10-22T01:30:28;11.80;99.90
16635;DHT22;8431;52.458;9.998;2022-10-22T01:32:58;11.70;99.90
16635;DHT22;8431;52.458;9.998;2022-10-22T01:35:30;11.70;99.90
16635;DHT22;8431;52.458;9.998;2022-10-22T01:38:00;11.70;99.90
16635;DHT22;8431;52.458;9.998;2022-10-22T01:40:29;11.70;99.90
16635;DHT22;8431;52.458;9.998;2022-10-22T01:42:59;11.70;99.90
16635;DHT22;8431;52.458;9.998;2022-10-22T01:45:32;11.70;99.90
16635;DHT22;8431;52.458;9.998;2022-10-22T01:48:08;11.70;99.90
16635;DHT22;8431;52.458;9.998;2022-10-22T01:53:36;11.80;99.90
16635;DHT22;8431;52.458;9.998;2022-10-22T01:56:22;11.90;99.90
16635;DHT22;8431;52.458;9.998;2022-10-22T01:58:56;12.00;99.90
16635;DHT22;8431;52.458;9.998;2022-10-22T02:01:33;12.00;99.90
16635;DHT22;8431;52.458;9.998;2022-10-22T02:04:09;12.10;99.90
16635;DHT22;8431;52.458;9.998;2022-10-22T02:06:38;12.10;99.90
16635;DHT22;8431;52.458;9.998;2022-10-22T02:09:08;12.10;99.90
16635;DHT22;8431;52.458;9.998;2022-10-22T02:11:36;12.20;99.90
16635;DHT22;8431;52.458;9.998;2022-10-22T02:14:04;12.10;99.90
16635;DHT22;8431;52.458;9.998;2022-10-22T02:16:37;12.10;99.90
16635;DHT22;8431;52.458;9.998;2022-10-22T02:19:10;12.10;99.90
16635;DHT22;8431;52.458;9.998;2022-10-22T02:21:39;12.10;99.90
16635;DHT22;8431;52.458;9.998;2022-10-22T02:24:06;12.10;99.90
16635;DHT22;8431;52.458;9.998;2022-10-22T02:26:37;12.10;99.90
16635;DHT22;8431;52.458;9.998;2022-10-22T02:29:09;12.00;99.90
16635;DHT22;8431;52.458;9.998;2022-10-22T02:31:42;12.00;99.90
16635;DHT22;8431;52.458;9.998;2022-10-22T02:34:13;12.10;99.90
16635;DHT22;8431;52.458;9.998;2022-10-22T02:36:42;12.20;99.90
16635;DHT22;8431;52.458;9.998;2022-10-22T02:39:11;12.20;99.90
16635;DHT22;8431;52.458;9.998;2022-10-22T02:41:39;12.20;99.90
16635;DHT22;8431;52.458;9.998;2022-10-22T02:44:08;12.10;99.90
16635;DHT22;8431;52.458;9.998;2022-10-22T02:46:36;12.10;99.90
16635;DHT22;8431;52.458;9.998;2022-10-22T02:49:05;12.10;99.90
16635;DHT22;8431;52.458;9.998;2022-10-22T02:51:32;12.10;99.90
16635;DHT22;8431;52.458;9.998;2022-10-22T02:53:59;12.10;99.90
16635;DHT22;8431;52.458;9.998;2022-10-22T02:56:26;12.10;99.90
16635;DHT22;8431;52.458;9.998;2022-10-22T02:58:53;12.20;99.90
16635;DHT22;8431;52.458;9.998;2022-10-22T03:01:20;12.20;99.90
16635;DHT22;8431;52.458;9.998;2022-10-22T03:03:47;12.10;99.90
16635;DHT22;8431;52.458;9.998;2022-10-22T03:06:16;12.10;99.90
16635;DHT22;8431;52.458;9.998;2022-10-22T03:08:43;12.00;99.90
16635;DHT22;8431;52.458;9.998;2022-10-22T03:11:10;12.10;99.90
16635;DHT22;8431;52.458;9.998;2022-10-22T03:13:37;12.10;99.90
16635;DHT22;8431;52.458;9.998;2022-10-22T03:16:04;12.20;99.90
16635;DHT22;8431;52.458;9.998;2022-10-22T03:18:31;12.30;99.90
16635;DHT22;8431;52.458;9.998;2022-10-22T03:21:03;12.30;99.90
16635;DHT22;8431;52.458;9.998;2022-10-22T03:23:33;12.20;99.90
16635;DHT22;8431;52.458;9.998;2022-10-22T03:26:01;12.20;99.90
16635;DHT22;8431;52.458;9.998;2022-10-22T03:28:28;12.10;99.90
16635;DHT22;8431;52.458;9.998;2022-10-22T03:30:55;12.10;99.90
16635;DHT22;8431;52.458;9.998;2022-10-22T03:33:22;12.00;99.90
16635;DHT22;8431;52.458;9.998;2022-10-22T03:35:49;12.00;99.90
16635;DHT22;8431;52.458;9.998;2022-10-22T03:38:17;12.00;99.90
16635;DHT22;8431;52.458;9.998;2022-10-22T03:40:45;11.90;99.90
16635;DHT22;8431;52.458;9.998;2022-10-22T03:43:13;11.90;99.90
16635;DHT22;8431;52.458;9.998;2022-10-22T03:45:40;11.90;99.90
16635;DHT22;8431;52.458;9.998;2022-10-22T03:48:07;11.90;99.90
16635;DHT22;8431;52.458;9.998;2022-10-22T03:50:34;11.80;99.90
16635;DHT22;8431;52.458;9.998;2022-10-22T03:53:01;11.70;99.90
16635;DHT22;8431;52.458;9.998;2022-10-22T03:55:29;11.70;99.90
16635;DHT22;8431;52.458;9.998;2022-10-22T03:57:57;11.70;99.90
16635;DHT22;8431;52.458;9.998;2022-10-22T04:00:24;11.70;99.90
16635;DHT22;8431;52.458;9.998;2022-10-22T04:02:51;11.60;99.90
16635;DHT22;8431;52.458;9.998;2022-10-22T04:05:18;11.60;99.90
16635;DHT22;8431;52.458;9.998;2022-10-22T04:07:45;11.50;99.90
16635;DHT22;8431;52.458;9.998;2022-10-22T04:10:12;11.50;99.90
16635;DHT22;8431;52.458;9.998;2022-10-22T04:12:39;11.50;99.90
16635;DHT22;8431;52.458;9.998;2022-10-22T04:15:08;11.50;99.90
16635;DHT22;8431;52.458;9.998;2022-10-22T04:17:36;11.50;99.90
16635;DHT22;8431;52.458;9.998;2022-10-22T04:20:04;11.50;99.90
16635;DHT22;8431;52.458;9.998;2022-10-22T04:22:32;11.60;99.90
16635;DHT22;8431;52.458;9.998;2022-10-22T04:25:00;11.60;99.90
16635;DHT22;8431;52.458;9.998;2022-10-22T04:27:29;11.70;99.90
16635;DHT22;8431;52.458;9.998;2022-10-22T04:29:56;11.70;99.90
16635;DHT22;8431;52.458;9.998;2022-10-22T04:32:25;11.80;99.90
16635;DHT22;8431;52.458;9.998;2022-10-22T04:34:53;11.80;99.90
16635;DHT22;8431;52.458;9.998;2022-10-22T04:37:20;11.80;99.90
16635;DHT22;8431;52.458;9.998;2022-10-22T04:39:47;11.80;99.90
16635;DHT22;8431;52.458;9.998;2022-10-22T04:42:14;11.80;99.90
16635;DHT22;8431;52.458;9.998;2022-10-22T04:44:41;11.80;99.90
16635;DHT22;8431;52.458;9.998;2022-10-22T04:47:08;11.80;99.90
16635;DHT22;8431;52.458;9.998;2022-10-22T04:49:37;11.70;99.90
16635;DHT22;8431;52.458;9.998;2022-10-22T04:52:04;11.70;99.90
16635;DHT22;8431;52.458;9.998;2022-10-22T04:54:31;11.60;99.90
16635;DHT22;8431;52.458;9.998;2022-10-22T04:56:58;11.60;99.90
16635;DHT22;8431;52.458;9.998;2022-10-22T04:59:25;11.60;99.90
16635;DHT22;8431;52.458;9.998;2022-10-22T05:01:52;11.60;99.90
16635;DHT22;8431;52.458;9.998;2022-10-22T05:04:19;11.60;99.90
16635;DHT22;8431;52.458;9.998;2022-10-22T05:06:47;11.60;99.90
16635;DHT22;8431;52.458;9.998;2022-10-22T05:09:16;11.60;99.90
16635;DHT22;8431;52.458;9.998;2022-10-22T05:11:45;11.60;99.90
16635;DHT22;8431;52.458;9.998;2022-10-22T05:14:15;11.60;99.90
16635;DHT22;8431;52.458;9.998;2022-10-22T05:16:42;11.60;99.90
16635;DHT22;8431;52.458;9.998;2022-10-22T05:19:16;11.60;99.90
16635;DHT22;8431;52.458;9.998;2022-10-22T05:21:44;11.60;99.90
16635;DHT22;8431;52.458;9.998;2022-10-22T05:24:12;11.60;99.90
16635;DHT22;8431;52.458;9.998;2022-10-22T05:26:39;11.60;99.90
16635;DHT22;8431;52.458;9.998;2022-10-22T05:29:07;11.60;99.90
16635;DHT22;8431;52.458;9.998;2022-10-22T05:31:34;11.60;99.90
16635;DHT22;8431;52.458;9.998;2022-10-22T05:34:01;11.70;99.90
16635;DHT22;8431;52.458;9.998;2022-10-22T05:36:28;11.70;99.90
16635;DHT22;8431;52.458;9.998;2022-10-22T05:38:56;11.60;99.90
16635;DHT22;8431;52.458;9.998;2022-10-22T05:41:26;11.60;99.90
16635;DHT22;8431;52.458;9.998;2022-10-22T05:43:54;11.60;99.90
16635;DHT22;8431;52.458;9.998;2022-10-22T05:46:23;11.70;99.90
16635;DHT22;8431;52.458;9.998;2022-10-22T05:48:51;11.60;99.90
16635;DHT22;8431;52.458;9.998;2022-10-22T05:51:18;11.60;99.90
16635;DHT22;8431;52.458;9.998;2022-10-22T05:53:50;11.60;99.90
16635;DHT22;8431;52.458;9.998;2022-10-22T05:56:18;11.60;99.90
16635;DHT22;8431;52.458;9.998;2022-10-22T05:58:46;11.60;99.90
16635;DHT22;8431;52.458;9.998;2022-10-22T06:01:16;11.60;99.90
16635;DHT22;8431;52.458;9.998;2022-10-22T06:03:44;11.50;99.90
16635;DHT22;8431;52.458;9.998;2022-10-22T06:06:16;11.50;99.90
16635;DHT22;8431;52.458;9.998;2022-10-22T06:08:45;11.60;99.90
16635;DHT22;8431;52.458;9.998;2022-10-22T06:11:12;11.60;99.90
16635;DHT22;8431;52.458;9.998;2022-10-22T06:13:39;11.60;99.90
16635;DHT22;8431;52.458;9.998;2022-10-22T06:16:08;11.60;99.90
16635;DHT22;8431;52.458;9.998;2022-10-22T06:18:35;11.60;99.90
16635;DHT22;8431;52.458;9.998;2022-10-22T06:21:07;11.60;99.90
16635;DHT22;8431;52.458;9.998;2022-10-22T06:23:35;11.60;99.90
16635;DHT22;8431;52.458;9.998;2022-10-22T06:26:02;11.60;99.90
16635;DHT22;8431;52.458;9.998;2022-10-22T06:28:30;11.60;99.90
16635;DHT22;8431;52.458;9.998;2022-10-22T06:30:57;11.60;99.90
16635;DHT22;8431;52.458;9.998;2022-10-22T06:33:26;11.60;99.90
16635;DHT22;8431;52.458;9.998;2022-10-22T06:35:53;11.60;99.90
16635;DHT22;8431;52.458;9.998;2022-10-22T06:38:21;11.60;99.90
16635;DHT22;8431;52.458;9.998;2022-10-22T06:40:47;11.60;99.90
16635;DHT22;8431;52.458;9.998;2022-10-22T06:43:14;11.60;99.90
16635;DHT22;8431;52.458;9.998;2022-10-22T06:45:41;11.60;99.90
16635;DHT22;8431;52.458;9.998;2022-10-22T06:48:08;11.60;99.90
16635;DHT22;8431;52.458;9.998;2022-10-22T06:50:37;11.60;99.90
16635;DHT22;8431;52.458;9.998;2022-10-22T06:53:04;11.70;99.90
16635;DHT22;8431;52.458;9.998;2022-10-22T06:55:31;11.70;99.90
16635;DHT22;8431;52.458;9.998;2022-10-22T06:57:58;11.70;99.90
16635;DHT22;8431;52.458;9.998;2022-10-22T07:00:25;11.80;99.90
16635;DHT22;8431;52.458;9.998;2022-10-22T07:02:52;11.80;99.90
16635;DHT22;8431;52.458;9.998;2022-10-22T07:05:20;11.80;99.90
16635;DHT22;8431;52.458;9.998;2022-10-22T07:07:48;11.80;99.90
16635;DHT22;8431;52.458;9.998;2022-10-22T07:10:15;11.80;99.90
16635;DHT22;8431;52.458;9.998;2022-10-22T07:12:42;11.80;99.90
16635;DHT22;8431;52.458;9.998;2022-10-22T07:15:09;11.90;99.90
16635;DHT22;8431;52.458;9.998;2022-10-22T07:17:36;11.90;99.90
16635;DHT22;8431;52.458;9.998;2022-10-22T07:20:04;11.90;99.90
16635;DHT22;8431;52.458;9.998;2022-10-22T07:22:32;11.90;99.90
16635;DHT22;8431;52.458;9.998;2022-10-22T07:25:00;11.90;99.90
16635;DHT22;8431;52.458;9.998;2022-10-22T07:27:27;11.80;99.90
16635;DHT22;8431;52.458;9.998;2022-10-22T07:29:54;11.80;99.90
16635;DHT22;8431;52.458;9.998;2022-10-22T07:32:21;11.80;99.90
16635;DHT22;8431;52.458;9.998;2022-10-22T07:34:48;11.80;99.90
16635;DHT22;8431;52.458;9.998;2022-10-22T07:37:15;11.80;99.90
16635;DHT22;8431;52.458;9.998;2022-10-22T07:39:42;11.90;99.90
16635;DHT22;8431;52.458;9.998;2022-10-22T07:42:12;11.90;99.90
16635;DHT22;8431;52.458;9.998;2022-10-22T07:44:39;12.00;99.90
16635;DHT22;8431;52.458;9.998;2022-10-22T07:47:06;12.00;99.90
16635;DHT22;8431;52.458;9.998;2022-10-22T07:49:33;12.10;99.90
16635;DHT22;8431;52.458;9.998;2022-10-22T07:52:00;12.20;99.90
16635;DHT22;8431;52.458;9.998;2022-10-22T07:54:27;12.20;99.90
16635;DHT22;8431;52.458;9.998;2022-10-22T07:56:54;12.20;99.90
16635;DHT22;8431;52.458;9.998;2022-10-22T07:59:23;12.20;99.90
16635;DHT22;8431;52.458;9.998;2022-10-22T08:01:50;12.20;99.90
16635;DHT22;8431;52.458;9.998;2022-10-22T08:04:17;12.20;99.90
16635;DHT22;8431;52.458;9.998;2022-10-22T08:06:44;12.30;99.90
16635;DHT22;8431;52.458;9.998;2022-10-22T08:09:11;12.40;99.90
16635;DHT22;8431;52.458;9.998;2022-10-22T08:11:38;12.40;99.90
16635;DHT22;8431;52.458;9.998;2022-10-22T08:14:05;12.50;99.90
16635;DHT22;8431;52.458;9.998;2022-10-22T08:16:33;12.60;99.90
16635;DHT22;8431;52.458;9.998;2022-10-22T08:19:00;12.70;99.90
16635;DHT22;8431;52.458;9.998;2022-10-22T08:21:27;12.80;99.90
16635;DHT22;8431;52.458;9.998;2022-10-22T08:23:54;12.90;99.90
16635;DHT22;8431;52.458;9.998;2022-10-22T08:26:21;12.90;99.90
16635;DHT22;8431;52.458;9.998;2022-10-22T08:28:48;13.00;99.90
16635;DHT22;8431;52.458;9.998;2022-10-22T08:31:15;13.20;99.90
16635;DHT22;8431;52.458;9.998;2022-10-22T08:33:43;13.30;99.90
16635;DHT22;8431;52.458;9.998;2022-10-22T08:36:10;13.40;99.90
16635;DHT22;8431;52.458;9.998;2022-10-22T08:38:37;13.40;99.90
16635;DHT22;8431;52.458;9.998;2022-10-22T08:41:10;13.50;99.90
16635;DHT22;8431;52.458;9.998;2022-10-22T08:46:46;13.60;99.90
16635;DHT22;8431;52.458;9.998;2022-10-22T08:49:20;13.80;99.90
16635;DHT22;8431;52.458;9.998;2022-10-22T08:51:48;13.80;99.90
16635;DHT22;8431;52.458;9.998;2022-10-22T08:54:21;13.90;99.90
16635;DHT22;8431;52.458;9.998;2022-10-22T08:57:01;13.90;99.90
16635;DHT22;8431;52.458;9.998;2022-10-22T08:59:36;13.90;99.90
16635;DHT22;8431;52.458;9.998;2022-10-22T09:02:18;14.00;99.90
16635;DHT22;8431;52.458;9.998;2022-10-22T09:04:55;14.10;99.90
16635;DHT22;8431;52.458;9.998;2022-10-22T09:07:27;14.10;99.90
16635;DHT22;8431;52.458;9.998;2022-10-22T09:09:56;14.10;99.90
16635;DHT22;8431;52.458;9.998;2022-10-22T09:12:26;14.10;99.90
16635;DHT22;8431;52.458;9.998;2022-10-22T09:14:53;14.20;99.90
16635;DHT22;8431;52.458;9.998;2022-10-22T09:17:26;14.20;99.90
16635;DHT22;8431;52.458;9.998;2022-10-22T09:20:06;14.30;99.90
16635;DHT22;8431;52.458;9.998;2022-10-22T09:22:41;14.40;99.90
16635;DHT22;8431;52.458;9.998;2022-10-22T09:25:18;14.40;99.90
16635;DHT22;8431;52.458;9.998;2022-10-22T09:27:46;14.40;99.90
16635;DHT22;8431;52.458;9.998;2022-10-22T09:30:16;14.50;99.90
16635;DHT22;8431;52.458;9.998;2022-10-22T09:32:43;14.60;99.90
16635;DHT22;8431;52.458;9.998;2022-10-22T09:35:13;14.60;99.90
16635;DHT22;8431;52.458;9.998;2022-10-22T09:37:48;14.60;99.90
16635;DHT22;8431;52.458;9.998;2022-10-22T09:40:16;14.60;99.90
16635;DHT22;8431;52.458;9.998;2022-10-22T09:42:45;14.70;99.90
16635;DHT22;8431;52.458;9.998;2022-10-22T09:45:17;14.80;99.90
16635;DHT22;8431;52.458;9.998;2022-10-22T09:47:45;14.80;99.90
16635;DHT22;8431;52.458;9.998;2022-10-22T09:50:25;14.80;99.90
16635;DHT22;8431;52.458;9.998;2022-10-22T09:52:59;14.80;99.90
16635;DHT22;8431;52.458;9.998;2022-10-22T09:55:27;14.90;99.90
16635;DHT22;8431;52.458;9.998;2022-10-22T09:57:55;15.00;99.90
16635;DHT22;8431;52.458;9.998;2022-10-22T10:00:23;15.00;99.90
16635;DHT22;8431;52.458;9.998;2022-10-22T10:02:53;15.10;99.90
16635;DHT22;8431;52.458;9.998;2022-10-22T10:05:27;15.20;99.90
16635;DHT22;8431;52.458;9.998;2022-10-22T10:07:55;15.20;99.90
16635;DHT22;8431;52.458;9.998;2022-10-22T10:10:32;15.30;99.90
16635;DHT22;8431;52.458;9.998;2022-10-22T10:13:07;15.30;99.90
16635;DHT22;8431;52.458;9.998;2022-10-22T10:15:42;15.30;99.90
16635;DHT22;8431;52.458;9.998;2022-10-22T10:18:19;15.40;99.90
16635;DHT22;8431;52.458;9.998;2022-10-22T10:20:54;15.60;99.90
16635;DHT22;8431;52.458;9.998;2022-10-22T10:23:30;15.60;99.90
16635;DHT22;8431;52.458;9.998;2022-10-22T10:26:03;15.70;99.90
16635;DHT22;8431;52.458;9.998;2022-10-22T10:28:50;15.70;99.90
16635;DHT22;8431;52.458;9.998;2022-10-22T10:31:31;15.80;99.90
16635;DHT22;8431;52.458;9.998;2022-10-22T10:34:06;15.80;99.90
16635;DHT22;8431;52.458;9.998;2022-10-22T10:36:47;15.90;99.90
16635;DHT22;8431;52.458;9.998;2022-10-22T10:39:22;16.00;99.90
16635;DHT22;8431;52.458;9.998;2022-10-22T10:41:54;16.10;99.90
16635;DHT22;8431;52.458;9.998;2022-10-22T10:44:36;16.30;99.90
16635;DHT22;8431;52.458;9.998;2022-10-22T10:50:00;16.70;99.90
16635;DHT22;8431;52.458;9.998;2022-10-22T10:52:40;16.70;99.90
16635;DHT22;8431;52.458;9.998;2022-10-22T10:55:16;16.70;99.90
16635;DHT22;8431;52.458;9.998;2022-10-22T10:57:51;16.60;99.90
16635;DHT22;8431;52.458;9.998;2022-10-22T11:00:23;16.60;99.90
16635;DHT22;8431;52.458;9.998;2022-10-22T11:03:24;16.70;99.90
16635;DHT22;8431;52.458;9.998;2022-10-22T11:05:57;16.70;99.90
16635;DHT22;8431;52.458;9.998;2022-10-22T11:08:29;16.80;99.90
16635;DHT22;8431;52.458;9.998;2022-10-22T11:11:00;17.00;99.90
16635;DHT22;8431;52.458;9.998;2022-10-22T11:13:30;17.40;99.90
16635;DHT22;8431;52.458;9.998;2022-10-22T11:16:03;17.70;99.90
16635;DHT22;8431;52.458;9.998;2022-10-22T11:18:36;17.90;99.90
16635;DHT22;8431;52.458;9.998;2022-10-22T11:21:13;18.10;99.90
16635;DHT22;8431;52.458;9.998;2022-10-22T11:23:49;18.10;99.90
16635;DHT22;8431;52.458;9.998;2022-10-22T11:26:26;18.10;99.90
16635;DHT22;8431;52.458;9.998;2022-10-22T11:28:56;17.90;99.90
16635;DHT22;8431;52.458;9.998;2022-10-22T11:31:25;18.00;99.90
16635;DHT22;8431;52.458;9.998;2022-10-22T11:33:57;18.00;99.90
16635;DHT22;8431;52.458;9.998;2022-10-22T11:36:26;18.10;99.90
16635;DHT22;8431;52.458;9.998;2022-10-22T11:38:55;18.20;99.90
16635;DHT22;8431;52.458;9.998;2022-10-22T11:41:24;18.10;99.90
16635;DHT22;8431;52.458;9.998;2022-10-22T11:44:08;17.90;99.90
16635;DHT22;8431;52.458;9.998;2022-10-22T11:46:43;17.80;99.90
16635;DHT22;8431;52.458;9.998;2022-10-22T11:49:22;17.80;99.90
16635;DHT22;8431;52.458;9.998;2022-10-22T11:51:50;17.80;99.90
16635;DHT22;8431;52.458;9.998;2022-10-22T11:54:38;17.80;99.90
16635;DHT22;8431;52.458;9.998;2022-10-22T11:57:24;17.60;99.90
16635;DHT22;8431;52.458;9.998;2022-10-22T11:59:55;17.50;99.90
16635;DHT22;8431;52.458;9.998;2022-10-22T12:02:41;17.60;99.90
16635;DHT22;8431;52.458;9.998;2022-10-22T12:08:24;17.90;99.90
16635;DHT22;8431;52.458;9.998;2022-10-22T12:11:02;18.00;99.90
16635;DHT22;8431;52.458;9.998;2022-10-22T12:13:32;18.20;99.90
16635;DHT22;8431;52.458;9.998;2022-10-22T12:16:02;18.50;99.90
16635;DHT22;8431;52.458;9.998;2022-10-22T12:18:34;18.80;99.90
16635;DHT22;8431;52.458;9.998;2022-10-22T12:21:04;18.80;99.90
16635;DHT22;8431;52.458;9.998;2022-10-22T12:23:33;18.70;99.90
16635;DHT22;8431;52.458;9.998;2022-10-22T12:26:03;18.50;99.90
16635;DHT22;8431;52.458;9.998;2022-10-22T12:28:38;18.50;99.90
16635;DHT22;8431;52.458;9.998;2022-10-22T12:31:12;18.70;99.90
16635;DHT22;8431;52.458;9.998;2022-10-22T12:33:40;18.70;99.90
16635;DHT22;8431;52.458;9.998;2022-10-22T12:36:14;18.70;99.90
16635;DHT22;8431;52.458;9.998;2022-10-22T12:38:44;18.80;99.90
16635;DHT22;8431;52.458;9.998;2022-10-22T12:41:14;18.70;99.90
16635;DHT22;8431;52.458;9.998;2022-10-22T12:43:41;18.70;99.90
16635;DHT22;8431;52.458;9.998;2022-10-22T12:46:10;18.50;99.90
16635;DHT22;8431;52.458;9.998;2022-10-22T12:48:40;18.20;99.90
16635;DHT22;8431;52.458;9.998;2022-10-22T12:51:14;18.00;99.90
16635;DHT22;8431;52.458;9.998;2022-10-22T12:53:45;17.90;99.90
16635;DHT22;8431;52.458;9.998;2022-10-22T12:56:19;17.80;99.90
16635;DHT22;8431;52.458;9.998;2022-10-22T12:58:51;17.70;99.90
16635;DHT22;8431;52.458;9.998;2022-10-22T13:01:18;17.70;99.90
16635;DHT22;8431;52.458;9.998;2022-10-22T13:03:47;17.60;99.90
16635;DHT22;8431;52.458;9.998;2022-10-22T13:06:23;17.50;99.90
16635;DHT22;8431;52.458;9.998;2022-10-22T13:09:06;17.50;99.90
16635;DHT22;8431;52.458;9.998;2022-10-22T13:11:38;17.50;99.90
16635;DHT22;8431;52.458;9.998;2022-10-22T13:14:24;17.60;99.90
16635;DHT22;8431;52.458;9.998;2022-10-22T13:17:11;17.70;99.90
16635;DHT22;8431;52.458;9.998;2022-10-22T13:19:45;17.80;99.90
16635;DHT22;8431;52.458;9.998;2022-10-22T13:22:32;18.00;99.90
16635;DHT22;8431;52.458;9.998;2022-10-22T13:25:17;18.20;99.90
16635;DHT22;8431;52.458;9.998;2022-10-22T13:27:47;18.40;99.90
16635;DHT22;8431;52.458;9.998;2022-10-22T13:30:19;18.60;99.90
16635;DHT22;8431;52.458;9.998;2022-10-22T13:32:51;18.80;99.90
16635;DHT22;8431;52.458;9.998;2022-10-22T13:35:22;18.70;99.90
16635;DHT22;8431;52.458;9.998;2022-10-22T13:37:49;18.50;99.90
16635;DHT22;8431;52.458;9.998;2022-10-22T13:40:17;18.30;99.90
16635;DHT22;8431;52.458;9.998;2022-10-22T13:42:45;18.10;99.90
16635;DHT22;8431;52.458;9.998;2022-10-22T13:45:13;18.10;99.90
16635;DHT22;8431;52.458;9.998;2022-10-22T13:47:41;18.00;99.90
16635;DHT22;8431;52.458;9.998;2022-10-22T13:50:13;17.90;99.90
16635;DHT22;8431;52.458;9.998;2022-10-22T13:52:43;17.80;99.90
16635;DHT22;8431;52.458;9.998;2022-10-22T13:55:16;17.70;99.90
16635;DHT22;8431;52.458;9.998;2022-10-22T13:57:44;17.30;99.90
16635;DHT22;8431;52.458;9.998;2022-10-22T14:00:15;16.80;99.90
16635;DHT22;8431;52.458;9.998;2022-10-22T14:02:42;16.10;99.90
16635;DHT22;8431;52.458;9.998;2022-10-22T14:05:10;15.80;99.90
16635;DHT22;8431;52.458;9.998;2022-10-22T14:07:38;15.60;99.90
16635;DHT22;8431;52.458;9.998;2022-10-22T14:10:17;15.50;99.90
16635;DHT22;8431;52.458;9.998;2022-10-22T14:12:44;15.60;99.90
16635;DHT22;8431;52.458;9.998;2022-10-22T14:15:14;15.80;99.90
16635;DHT22;8431;52.458;9.998;2022-10-22T14:17:43;15.90;99.90
16635;DHT22;8431;52.458;9.998;2022-10-22T14:20:16;16.00;99.90
16635;DHT22;8431;52.458;9.998;2022-10-22T14:22:44;15.90;99.90
16635;DHT22;8431;52.458;9.998;2022-10-22T14:25:13;15.90;99.90
16635;DHT22;8431;52.458;9.998;2022-10-22T14:27:41;15.90;99.90
16635;DHT22;8431;52.458;9.998;2022-10-22T14:30:13;15.90;99.90
16635;DHT22;8431;52.458;9.998;2022-10-22T14:32:41;15.90;99.90
16635;DHT22;8431;52.458;9.998;2022-10-22T14:35:11;15.90;99.90
16635;DHT22;8431;52.458;9.998;2022-10-22T14:37:39;16.00;99.90
16635;DHT22;8431;52.458;9.998;2022-10-22T14:40:08;16.00;99.90
16635;DHT22;8431;52.458;9.998;2022-10-22T14:42:39;16.10;99.90
16635;DHT22;8431;52.458;9.998;2022-10-22T14:45:09;16.10;99.90
16635;DHT22;8431;52.458;9.998;2022-10-22T14:47:40;16.10;99.90
16635;DHT22;8431;52.458;9.998;2022-10-22T14:50:07;16.10;99.90
16635;DHT22;8431;52.458;9.998;2022-10-22T14:52:34;16.00;99.90
16635;DHT22;8431;52.458;9.998;2022-10-22T14:55:02;16.00;99.90
16635;DHT22;8431;52.458;9.998;2022-10-22T14:57:29;16.10;99.90
16635;DHT22;8431;52.458;9.998;2022-10-22T14:59:56;16.00;99.90
16635;DHT22;8431;52.458;9.998;2022-10-22T15:02:23;16.00;99.90
16635;DHT22;8431;52.458;9.998;2022-10-22T15:04:52;15.90;99.90
16635;DHT22;8431;52.458;9.998;2022-10-22T15:07:19;15.70;99.90
16635;DHT22;8431;52.458;9.998;2022-10-22T15:09:46;15.60;99.90
16635;DHT22;8431;52.458;9.998;2022-10-22T15:12:13;15.40;99.90
16635;DHT22;8431;52.458;9.998;2022-10-22T15:14:40;15.30;99.90
16635;DHT22;8431;52.458;9.998;2022-10-22T15:17:07;15.30;99.90
16635;DHT22;8431;52.458;9.998;2022-10-22T15:19:34;15.30;99.90
16635;DHT22;8431;52.458;9.998;2022-10-22T15:22:02;15.30;99.90
16635;DHT22;8431;52.458;9.998;2022-10-22T15:24:30;15.40;99.90
16635;DHT22;8431;52.458;9.998;2022-10-22T15:26:57;15.30;99.90
16635;DHT22;8431;52.458;9.998;2022-10-22T15:29:24;15.20;99.90
16635;DHT22;8431;52.458;9.998;2022-10-22T15:31:53;15.20;99.90
16635;DHT22;8431;52.458;9.998;2022-10-22T15:34:25;15.20;99.90
16635;DHT22;8431;52.458;9.998;2022-10-22T15:36:54;15.20;99.90
16635;DHT22;8431;52.458;9.998;2022-10-22T15:39:23;15.30;99.90
16635;DHT22;8431;52.458;9.998;2022-10-22T15:41:51;15.40;99.90
16635;DHT22;8431;52.458;9.998;2022-10-22T15:44:20;15.40;99.90
16635;DHT22;8431;52.458;9.998;2022-10-22T15:46:47;15.40;99.90
16635;DHT22;8431;52.458;9.998;2022-10-22T15:49:15;15.40;99.90
16635;DHT22;8431;52.458;9.998;2022-10-22T15:51:42;15.40;99.90
16635;DHT22;8431;52.458;9.998;2022-10-22T15:54:12;15.40;99.90
16635;DHT22;8431;52.458;9.998;2022-10-22T15:56:41;15.50;99.90
16635;DHT22;8431;52.458;9.998;2022-10-22T15:59:10;15.40;99.90
16635;DHT22;8431;52.458;9.998;2022-10-22T16:01:37;15.40;99.90
16635;DHT22;8431;52.458;9.998;2022-10-22T16:04:05;15.30;99.90
16635;DHT22;8431;52.458;9.998;2022-10-22T16:06:34;15.20;99.90
16635;DHT22;8431;52.458;9.998;2022-10-22T16:09:04;15.20;99.90
16635;DHT22;8431;52.458;9.998;2022-10-22T16:11:32;15.20;99.90
16635;DHT22;8431;52.458;9.998;2022-10-22T16:14:00;15.20;99.90
16635;DHT22;8431;52.458;9.998;2022-10-22T16:16:29;15.20;99.90
16635;DHT22;8431;52.458;9.998;2022-10-22T16:18:56;15.20;99.90